Williston, North Dakota
Current Conditions -  °F | °C
As of 9:52 AM on Thursday 30 Oct 2014 (Local Time) from KISN Reporting Station
Overcast Overcast  
Wind Chill: -1°   Ceiling: 1400
Heat Index:   Visibility: 10mi
Dew Point: -1°   Wind: 8mph
Humidity: 82%   Direction: 360°N
Pressure: 30.35"   Gusts: NA
Location:  48.15°N, 103.62°W
Report Text: KISN 301452Z AUTO 36007KT 10SM OVC014 02/M01 A3035 RMK AO2 SLP296 T00221006 51026
Loading
Personal Weather Stations






























Interactive Weather Map
Tropical Storm Tracking
New forecast layout! Learn more

10-Day Weather Forecast

Advertisements
Track Severe Weather on mobile